sensor_id;sensor_type;location;lat;lon;timestamp;temperature;humidity
45953;DHT22;31662;52.262;10.522;2023-08-12T00:01:04;21.60;94.10
45953;DHT22;31662;52.262;10.522;2023-08-12T00:03:30;21.60;94.20
45953;DHT22;31662;52.262;10.522;2023-08-12T00:05:57;21.60;94.20
45953;DHT22;31662;52.262;10.522;2023-08-12T00:08:25;21.60;94.20
45953;DHT22;31662;52.262;10.522;2023-08-12T00:10:51;21.60;94.10
45953;DHT22;31662;52.262;10.522;2023-08-12T00:13:17;21.60;94.20
45953;DHT22;31662;52.262;10.522;2023-08-12T00:15:43;21.50;94.20
45953;DHT22;31662;52.262;10.522;2023-08-12T00:18:09;21.50;94.10
45953;DHT22;31662;52.262;10.522;2023-08-12T00:20:34;21.50;94.30
45953;DHT22;31662;52.262;10.522;2023-08-12T00:23:00;21.50;94.50
45953;DHT22;31662;52.262;10.522;2023-08-12T00:25:25;21.50;94.30
45953;DHT22;31662;52.262;10.522;2023-08-12T00:27:52;21.50;94.20
45953;DHT22;31662;52.262;10.522;2023-08-12T00:30:17;21.40;94.50
45953;DHT22;31662;52.262;10.522;2023-08-12T00:32:43;21.30;94.60
45953;DHT22;31662;52.262;10.522;2023-08-12T00:35:09;21.40;94.60
45953;DHT22;31662;52.262;10.522;2023-08-12T00:37:34;21.30;94.50
45953;DHT22;31662;52.262;10.522;2023-08-12T00:40:00;21.30;94.60
45953;DHT22;31662;52.262;10.522;2023-08-12T00:42:25;21.30;94.60
45953;DHT22;31662;52.262;10.522;2023-08-12T00:44:51;21.30;94.90
45953;DHT22;31662;52.262;10.522;2023-08-12T00:47:17;21.30;94.40
45953;DHT22;31662;52.262;10.522;2023-08-12T00:49:42;21.30;94.80
45953;DHT22;31662;52.262;10.522;2023-08-12T00:52:15;21.30;95.00
45953;DHT22;31662;52.262;10.522;2023-08-12T00:54:40;21.30;94.90
45953;DHT22;31662;52.262;10.522;2023-08-12T00:57:07;21.40;94.80
45953;DHT22;31662;52.262;10.522;2023-08-12T00:59:35;21.40;94.90
45953;DHT22;31662;52.262;10.522;2023-08-12T01:02:01;21.40;94.90
45953;DHT22;31662;52.262;10.522;2023-08-12T01:04:27;21.30;94.90
45953;DHT22;31662;52.262;10.522;2023-08-12T01:06:53;21.20;95.00
45953;DHT22;31662;52.262;10.522;2023-08-12T01:09:18;21.20;95.10
45953;DHT22;31662;52.262;10.522;2023-08-12T01:14:33;21.10;95.20
45953;DHT22;31662;52.262;10.522;2023-08-12T01:17:02;21.20;95.10
45953;DHT22;31662;52.262;10.522;2023-08-12T01:19:39;21.20;95.00
45953;DHT22;31662;52.262;10.522;2023-08-12T01:22:09;21.10;95.20
45953;DHT22;31662;52.262;10.522;2023-08-12T01:24:40;21.10;95.00
45953;DHT22;31662;52.262;10.522;2023-08-12T01:27:07;21.00;95.50
45953;DHT22;31662;52.262;10.522;2023-08-12T01:29:34;21.00;95.20
45953;DHT22;31662;52.262;10.522;2023-08-12T01:32:23;21.10;95.30
45953;DHT22;31662;52.262;10.522;2023-08-12T01:37:39;21.00;95.60
45953;DHT22;31662;52.262;10.522;2023-08-12T01:40:08;20.90;95.60
45953;DHT22;31662;52.262;10.522;2023-08-12T01:42:35;20.80;95.90
45953;DHT22;31662;52.262;10.522;2023-08-12T01:45:01;20.80;96.00
45953;DHT22;31662;52.262;10.522;2023-08-12T01:47:28;20.80;96.00
45953;DHT22;31662;52.262;10.522;2023-08-12T01:49:54;20.80;95.80
45953;DHT22;31662;52.262;10.522;2023-08-12T01:52:19;20.80;95.80
45953;DHT22;31662;52.262;10.522;2023-08-12T01:54:45;20.90;95.80
45953;DHT22;31662;52.262;10.522;2023-08-12T01:57:10;20.90;95.90
45953;DHT22;31662;52.262;10.522;2023-08-12T01:59:36;20.90;96.10
45953;DHT22;31662;52.262;10.522;2023-08-12T02:02:02;21.00;95.90
45953;DHT22;31662;52.262;10.522;2023-08-12T02:04:28;20.90;95.80
45953;DHT22;31662;52.262;10.522;2023-08-12T02:06:54;20.90;96.00
45953;DHT22;31662;52.262;10.522;2023-08-12T02:09:20;21.00;95.90
45953;DHT22;31662;52.262;10.522;2023-08-12T02:11:46;20.90;96.00
45953;DHT22;31662;52.262;10.522;2023-08-12T02:14:11;20.80;95.90
45953;DHT22;31662;52.262;10.522;2023-08-12T02:16:37;20.90;95.80
45953;DHT22;31662;52.262;10.522;2023-08-12T02:19:03;20.80;96.00
45953;DHT22;31662;52.262;10.522;2023-08-12T02:21:28;20.90;96.20
45953;DHT22;31662;52.262;10.522;2023-08-12T02:23:54;20.80;96.00
45953;DHT22;31662;52.262;10.522;2023-08-12T02:26:20;20.80;96.00
45953;DHT22;31662;52.262;10.522;2023-08-12T02:28:45;20.90;96.10
45953;DHT22;31662;52.262;10.522;2023-08-12T02:31:11;20.90;96.20
45953;DHT22;31662;52.262;10.522;2023-08-12T02:33:36;20.80;96.10
45953;DHT22;31662;52.262;10.522;2023-08-12T02:36:02;20.70;96.20
45953;DHT22;31662;52.262;10.522;2023-08-12T02:38:28;20.70;96.50
45953;DHT22;31662;52.262;10.522;2023-08-12T02:40:53;20.60;96.20
45953;DHT22;31662;52.262;10.522;2023-08-12T02:43:19;20.50;96.40
45953;DHT22;31662;52.262;10.522;2023-08-12T02:45:44;20.50;96.50
45953;DHT22;31662;52.262;10.522;2023-08-12T02:48:10;20.50;96.60
45953;DHT22;31662;52.262;10.522;2023-08-12T02:50:37;20.40;96.40
45953;DHT22;31662;52.262;10.522;2023-08-12T02:53:03;20.40;96.60
45953;DHT22;31662;52.262;10.522;2023-08-12T02:55:28;20.50;96.70
45953;DHT22;31662;52.262;10.522;2023-08-12T02:57:54;20.50;96.60
45953;DHT22;31662;52.262;10.522;2023-08-12T03:00:20;20.50;96.80
45953;DHT22;31662;52.262;10.522;2023-08-12T03:02:47;20.50;96.70
45953;DHT22;31662;52.262;10.522;2023-08-12T03:05:13;20.50;96.70
45953;DHT22;31662;52.262;10.522;2023-08-12T03:07:38;20.60;96.80
45953;DHT22;31662;52.262;10.522;2023-08-12T03:10:04;20.60;96.60
45953;DHT22;31662;52.262;10.522;2023-08-12T03:12:30;20.60;96.80
45953;DHT22;31662;52.262;10.522;2023-08-12T03:14:55;20.60;96.60
45953;DHT22;31662;52.262;10.522;2023-08-12T03:17:21;20.60;96.60
45953;DHT22;31662;52.262;10.522;2023-08-12T03:19:46;20.60;96.50
45953;DHT22;31662;52.262;10.522;2023-08-12T03:22:12;20.60;96.60
45953;DHT22;31662;52.262;10.522;2023-08-12T03:24:37;20.70;96.70
45953;DHT22;31662;52.262;10.522;2023-08-12T03:27:03;20.70;96.60
45953;DHT22;31662;52.262;10.522;2023-08-12T03:29:28;20.60;96.50
45953;DHT22;31662;52.262;10.522;2023-08-12T03:31:54;20.60;96.60
45953;DHT22;31662;52.262;10.522;2023-08-12T03:34:19;20.60;96.80
45953;DHT22;31662;52.262;10.522;2023-08-12T03:36:45;20.60;96.70
45953;DHT22;31662;52.262;10.522;2023-08-12T03:39:13;20.70;96.70
45953;DHT22;31662;52.262;10.522;2023-08-12T03:41:39;20.80;96.70
45953;DHT22;31662;52.262;10.522;2023-08-12T03:44:05;20.90;96.60
45953;DHT22;31662;52.262;10.522;2023-08-12T03:46:30;20.90;96.50
45953;DHT22;31662;52.262;10.522;2023-08-12T03:48:56;21.00;96.50
45953;DHT22;31662;52.262;10.522;2023-08-12T03:51:22;21.00;96.40
45953;DHT22;31662;52.262;10.522;2023-08-12T03:53:47;20.90;96.40
45953;DHT22;31662;52.262;10.522;2023-08-12T03:56:13;21.00;96.40
45953;DHT22;31662;52.262;10.522;2023-08-12T03:58:41;21.00;96.30
45953;DHT22;31662;52.262;10.522;2023-08-12T04:01:06;21.00;96.30
45953;DHT22;31662;52.262;10.522;2023-08-12T04:03:32;20.90;96.30
45953;DHT22;31662;52.262;10.522;2023-08-12T04:05:57;21.00;96.30
45953;DHT22;31662;52.262;10.522;2023-08-12T04:08:23;21.00;96.30
45953;DHT22;31662;52.262;10.522;2023-08-12T04:10:50;21.00;96.20
45953;DHT22;31662;52.262;10.522;2023-08-12T04:13:16;21.10;96.20
45953;DHT22;31662;52.262;10.522;2023-08-12T04:15:41;21.10;96.30
45953;DHT22;31662;52.262;10.522;2023-08-12T04:18:07;21.00;96.50
45953;DHT22;31662;52.262;10.522;2023-08-12T04:20:33;20.90;96.60
45953;DHT22;31662;52.262;10.522;2023-08-12T04:22:58;20.80;96.50
45953;DHT22;31662;52.262;10.522;2023-08-12T04:25:25;20.80;96.60
45953;DHT22;31662;52.262;10.522;2023-08-12T04:27:51;20.90;96.50
45953;DHT22;31662;52.262;10.522;2023-08-12T04:30:17;20.90;96.50
45953;DHT22;31662;52.262;10.522;2023-08-12T04:32:43;21.00;96.50
45953;DHT22;31662;52.262;10.522;2023-08-12T04:35:08;21.00;96.50
45953;DHT22;31662;52.262;10.522;2023-08-12T04:37:35;21.00;96.40
45953;DHT22;31662;52.262;10.522;2023-08-12T04:40:01;20.90;96.50
45953;DHT22;31662;52.262;10.522;2023-08-12T04:42:26;20.90;96.40
45953;DHT22;31662;52.262;10.522;2023-08-12T04:44:52;20.90;96.50
45953;DHT22;31662;52.262;10.522;2023-08-12T04:47:17;20.90;96.60
45953;DHT22;31662;52.262;10.522;2023-08-12T04:49:43;20.90;96.40
45953;DHT22;31662;52.262;10.522;2023-08-12T04:52:09;20.80;96.40
45953;DHT22;31662;52.262;10.522;2023-08-12T04:54:34;20.80;96.60
45953;DHT22;31662;52.262;10.522;2023-08-12T04:57:00;20.80;96.60
45953;DHT22;31662;52.262;10.522;2023-08-12T04:59:25;20.80;96.80
45953;DHT22;31662;52.262;10.522;2023-08-12T05:01:51;20.80;96.80
45953;DHT22;31662;52.262;10.522;2023-08-12T05:04:16;20.80;96.90
45953;DHT22;31662;52.262;10.522;2023-08-12T05:06:42;20.80;96.90
45953;DHT22;31662;52.262;10.522;2023-08-12T05:09:07;20.80;96.90
45953;DHT22;31662;52.262;10.522;2023-08-12T05:11:33;20.70;97.00
45953;DHT22;31662;52.262;10.522;2023-08-12T05:13:59;20.70;97.10
45953;DHT22;31662;52.262;10.522;2023-08-12T05:16:25;20.80;97.10
45953;DHT22;31662;52.262;10.522;2023-08-12T05:18:51;20.80;97.40
45953;DHT22;31662;52.262;10.522;2023-08-12T05:21:16;20.80;97.50
45953;DHT22;31662;52.262;10.522;2023-08-12T05:23:42;20.80;97.80
45953;DHT22;31662;52.262;10.522;2023-08-12T05:26:07;20.70;97.90
45953;DHT22;31662;52.262;10.522;2023-08-12T05:28:33;20.70;98.20
45953;DHT22;31662;52.262;10.522;2023-08-12T05:30:58;20.50;98.50
45953;DHT22;31662;52.262;10.522;2023-08-12T05:33:24;20.40;98.90
45953;DHT22;31662;52.262;10.522;2023-08-12T05:35:50;20.30;99.10
45953;DHT22;31662;52.262;10.522;2023-08-12T05:38:16;20.20;99.80
45953;DHT22;31662;52.262;10.522;2023-08-12T05:40:41;20.10;99.90
45953;DHT22;31662;52.262;10.522;2023-08-12T05:43:07;20.00;99.90
45953;DHT22;31662;52.262;10.522;2023-08-12T05:45:33;19.90;99.90
45953;DHT22;31662;52.262;10.522;2023-08-12T05:47:59;19.80;99.90
45953;DHT22;31662;52.262;10.522;2023-08-12T05:50:25;19.80;99.90
45953;DHT22;31662;52.262;10.522;2023-08-12T05:52:50;19.80;99.90
45953;DHT22;31662;52.262;10.522;2023-08-12T05:55:16;19.70;99.90
45953;DHT22;31662;52.262;10.522;2023-08-12T05:57:41;19.70;99.90
45953;DHT22;31662;52.262;10.522;2023-08-12T06:00:07;19.80;99.90
45953;DHT22;31662;52.262;10.522;2023-08-12T06:02:33;19.70;99.90
45953;DHT22;31662;52.262;10.522;2023-08-12T06:04:59;19.60;99.90
45953;DHT22;31662;52.262;10.522;2023-08-12T06:07:24;19.70;99.90
45953;DHT22;31662;52.262;10.522;2023-08-12T06:09:50;19.70;99.90
45953;DHT22;31662;52.262;10.522;2023-08-12T06:12:16;19.80;99.90
45953;DHT22;31662;52.262;10.522;2023-08-12T06:14:41;19.90;99.90
45953;DHT22;31662;52.262;10.522;2023-08-12T06:17:07;20.00;99.90
45953;DHT22;31662;52.262;10.522;2023-08-12T06:19:33;20.20;99.90
45953;DHT22;31662;52.262;10.522;2023-08-12T06:21:58;20.20;99.90
45953;DHT22;31662;52.262;10.522;2023-08-12T06:24:24;20.30;99.90
45953;DHT22;31662;52.262;10.522;2023-08-12T06:26:49;20.40;99.90
45953;DHT22;31662;52.262;10.522;2023-08-12T06:29:15;20.40;99.90
45953;DHT22;31662;52.262;10.522;2023-08-12T06:31:41;20.50;99.90
45953;DHT22;31662;52.262;10.522;2023-08-12T06:34:07;20.50;99.90
45953;DHT22;31662;52.262;10.522;2023-08-12T06:36:32;20.50;99.90
45953;DHT22;31662;52.262;10.522;2023-08-12T06:38:58;20.50;99.90
45953;DHT22;31662;52.262;10.522;2023-08-12T06:41:23;20.50;99.90
45953;DHT22;31662;52.262;10.522;2023-08-12T06:43:49;20.50;99.90
45953;DHT22;31662;52.262;10.522;2023-08-12T06:46:15;20.40;99.90
45953;DHT22;31662;52.262;10.522;2023-08-12T06:48:40;20.40;99.90
45953;DHT22;31662;52.262;10.522;2023-08-12T06:51:06;20.40;99.90
45953;DHT22;31662;52.262;10.522;2023-08-12T06:53:38;20.40;99.90
45953;DHT22;31662;52.262;10.522;2023-08-12T06:56:04;20.50;99.90
45953;DHT22;31662;52.262;10.522;2023-08-12T06:58:30;20.50;99.90
45953;DHT22;31662;52.262;10.522;2023-08-12T07:00:55;20.50;99.90
45953;DHT22;31662;52.262;10.522;2023-08-12T07:03:22;20.50;99.90
45953;DHT22;31662;52.262;10.522;2023-08-12T07:05:48;20.60;99.90
45953;DHT22;31662;52.262;10.522;2023-08-12T07:08:13;20.60;99.90
45953;DHT22;31662;52.262;10.522;2023-08-12T07:10:40;20.60;99.90
45953;DHT22;31662;52.262;10.522;2023-08-12T07:13:06;20.60;99.90
45953;DHT22;31662;52.262;10.522;2023-08-12T07:15:32;20.70;99.90
45953;DHT22;31662;52.262;10.522;2023-08-12T07:17:57;20.70;99.90
45953;DHT22;31662;52.262;10.522;2023-08-12T07:20:24;20.70;99.90
45953;DHT22;31662;52.262;10.522;2023-08-12T07:22:50;20.70;99.90
45953;DHT22;31662;52.262;10.522;2023-08-12T07:25:15;20.80;99.90
45953;DHT22;31662;52.262;10.522;2023-08-12T07:27:41;20.80;99.90
45953;DHT22;31662;52.262;10.522;2023-08-12T07:30:07;20.90;99.90
45953;DHT22;31662;52.262;10.522;2023-08-12T07:32:33;21.00;99.90
45953;DHT22;31662;52.262;10.522;2023-08-12T07:34:59;21.00;99.90
45953;DHT22;31662;52.262;10.522;2023-08-12T07:37:25;21.10;99.90
45953;DHT22;31662;52.262;10.522;2023-08-12T07:39:50;21.10;99.90
45953;DHT22;31662;52.262;10.522;2023-08-12T07:42:16;21.10;99.90
45953;DHT22;31662;52.262;10.522;2023-08-12T07:44:42;21.10;99.90
45953;DHT22;31662;52.262;10.522;2023-08-12T07:47:08;21.10;99.90
45953;DHT22;31662;52.262;10.522;2023-08-12T07:49:34;21.10;99.90
45953;DHT22;31662;52.262;10.522;2023-08-12T07:52:00;21.00;99.90
45953;DHT22;31662;52.262;10.522;2023-08-12T07:54:26;21.00;99.90
45953;DHT22;31662;52.262;10.522;2023-08-12T07:56:52;21.10;99.90
45953;DHT22;31662;52.262;10.522;2023-08-12T07:59:19;21.10;99.90
45953;DHT22;31662;52.262;10.522;2023-08-12T08:01:45;21.10;99.90
45953;DHT22;31662;52.262;10.522;2023-08-12T08:04:10;21.10;99.90
45953;DHT22;31662;52.262;10.522;2023-08-12T08:06:36;21.20;99.90
45953;DHT22;31662;52.262;10.522;2023-08-12T08:09:02;21.20;99.90
45953;DHT22;31662;52.262;10.522;2023-08-12T08:11:29;21.20;99.90
45953;DHT22;31662;52.262;10.522;2023-08-12T08:13:55;21.20;99.90
45953;DHT22;31662;52.262;10.522;2023-08-12T08:16:21;21.20;99.90
45953;DHT22;31662;52.262;10.522;2023-08-12T08:18:46;21.20;99.90
45953;DHT22;31662;52.262;10.522;2023-08-12T08:21:12;21.20;99.90
45953;DHT22;31662;52.262;10.522;2023-08-12T08:23:39;21.30;99.90
45953;DHT22;31662;52.262;10.522;2023-08-12T08:26:05;21.40;99.90
45953;DHT22;31662;52.262;10.522;2023-08-12T08:28:30;21.50;99.90
45953;DHT22;31662;52.262;10.522;2023-08-12T08:30:56;21.50;99.90
45953;DHT22;31662;52.262;10.522;2023-08-12T08:33:21;21.50;99.90
45953;DHT22;31662;52.262;10.522;2023-08-12T08:35:47;21.60;99.90
45953;DHT22;31662;52.262;10.522;2023-08-12T08:38:12;21.70;99.90
45953;DHT22;31662;52.262;10.522;2023-08-12T08:40:38;21.80;99.90
45953;DHT22;31662;52.262;10.522;2023-08-12T08:43:07;21.80;99.90
45953;DHT22;31662;52.262;10.522;2023-08-12T08:45:33;21.80;99.90
45953;DHT22;31662;52.262;10.522;2023-08-12T08:48:00;21.90;99.90
45953;DHT22;31662;52.262;10.522;2023-08-12T08:50:29;22.00;99.90
45953;DHT22;31662;52.262;10.522;2023-08-12T08:52:55;22.10;99.90
45953;DHT22;31662;52.262;10.522;2023-08-12T08:55:22;22.10;99.90
45953;DHT22;31662;52.262;10.522;2023-08-12T08:57:48;22.20;99.90
45953;DHT22;31662;52.262;10.522;2023-08-12T09:00:17;22.20;99.90
45953;DHT22;31662;52.262;10.522;2023-08-12T09:02:47;22.20;99.90
45953;DHT22;31662;52.262;10.522;2023-08-12T09:05:16;22.10;99.90
45953;DHT22;31662;52.262;10.522;2023-08-12T09:07:43;22.10;99.90
45953;DHT22;31662;52.262;10.522;2023-08-12T09:10:12;22.10;99.90
45953;DHT22;31662;52.262;10.522;2023-08-12T09:12:38;22.10;99.90
45953;DHT22;31662;52.262;10.522;2023-08-12T09:15:05;22.00;99.90
45953;DHT22;31662;52.262;10.522;2023-08-12T09:17:32;22.10;99.90
45953;DHT22;31662;52.262;10.522;2023-08-12T09:19:58;22.00;99.90
45953;DHT22;31662;52.262;10.522;2023-08-12T09:22:24;22.00;99.90
45953;DHT22;31662;52.262;10.522;2023-08-12T09:24:57;21.90;99.90
45953;DHT22;31662;52.262;10.522;2023-08-12T09:27:23;21.90;99.90
45953;DHT22;31662;52.262;10.522;2023-08-12T09:29:50;21.90;99.90
45953;DHT22;31662;52.262;10.522;2023-08-12T09:32:19;21.70;99.90
45953;DHT22;31662;52.262;10.522;2023-08-12T09:34:46;21.60;99.90
45953;DHT22;31662;52.262;10.522;2023-08-12T09:37:13;21.60;99.90
45953;DHT22;31662;52.262;10.522;2023-08-12T09:39:39;21.60;99.90
45953;DHT22;31662;52.262;10.522;2023-08-12T09:42:05;21.60;99.90
45953;DHT22;31662;52.262;10.522;2023-08-12T09:44:35;21.70;99.90
45953;DHT22;31662;52.262;10.522;2023-08-12T09:47:00;21.80;99.90
45953;DHT22;31662;52.262;10.522;2023-08-12T09:49:26;21.80;99.90
45953;DHT22;31662;52.262;10.522;2023-08-12T09:51:53;21.80;99.90
45953;DHT22;31662;52.262;10.522;2023-08-12T09:54:18;21.70;99.90
45953;DHT22;31662;52.262;10.522;2023-08-12T09:56:51;21.70;99.90
45953;DHT22;31662;52.262;10.522;2023-08-12T09:59:19;21.70;99.90
45953;DHT22;31662;52.262;10.522;2023-08-12T10:01:48;21.70;99.90
45953;DHT22;31662;52.262;10.522;2023-08-12T10:04:16;21.80;99.90
45953;DHT22;31662;52.262;10.522;2023-08-12T10:06:42;21.90;99.90
45953;DHT22;31662;52.262;10.522;2023-08-12T10:09:10;22.10;99.90
45953;DHT22;31662;52.262;10.522;2023-08-12T10:11:37;22.30;99.90
45953;DHT22;31662;52.262;10.522;2023-08-12T10:14:06;22.40;99.90
45953;DHT22;31662;52.262;10.522;2023-08-12T10:16:34;22.60;99.90
45953;DHT22;31662;52.262;10.522;2023-08-12T10:19:01;22.80;99.90
45953;DHT22;31662;52.262;10.522;2023-08-12T10:21:28;22.80;99.90
45953;DHT22;31662;52.262;10.522;2023-08-12T10:23:54;22.80;99.90
45953;DHT22;31662;52.262;10.522;2023-08-12T10:26:22;22.90;99.90
45953;DHT22;31662;52.262;10.522;2023-08-12T10:28:48;23.00;99.90
45953;DHT22;31662;52.262;10.522;2023-08-12T10:31:14;23.20;99.90
45953;DHT22;31662;52.262;10.522;2023-08-12T10:33:40;23.40;99.90
45953;DHT22;31662;52.262;10.522;2023-08-12T10:36:06;23.70;99.90
45953;DHT22;31662;52.262;10.522;2023-08-12T10:38:33;24.00;99.90
45953;DHT22;31662;52.262;10.522;2023-08-12T10:46:31;24.80;99.90
45953;DHT22;31662;52.262;10.522;2023-08-12T10:49:09;24.90;99.90
45953;DHT22;31662;52.262;10.522;2023-08-12T11:02:18;25.60;99.90
45953;DHT22;31662;52.262;10.522;2023-08-12T11:04:48;25.60;99.90
45953;DHT22;31662;52.262;10.522;2023-08-12T11:07:15;25.60;99.70
45953;DHT22;31662;52.262;10.522;2023-08-12T11:09:43;25.60;99.20
45953;DHT22;31662;52.262;10.522;2023-08-12T11:12:08;25.50;99.20
45953;DHT22;31662;52.262;10.522;2023-08-12T11:14:53;25.50;99.40
45953;DHT22;31662;52.262;10.522;2023-08-12T11:17:19;25.50;99.50
45953;DHT22;31662;52.262;10.522;2023-08-12T11:19:44;25.60;99.50
45953;DHT22;31662;52.262;10.522;2023-08-12T11:22:10;25.80;99.40
45953;DHT22;31662;52.262;10.522;2023-08-12T11:24:41;26.00;99.10
45953;DHT22;31662;52.262;10.522;2023-08-12T11:27:10;26.20;99.00
45953;DHT22;31662;52.262;10.522;2023-08-12T11:29:38;26.40;98.70
45953;DHT22;31662;52.262;10.522;2023-08-12T11:32:05;26.70;99.00
45953;DHT22;31662;52.262;10.522;2023-08-12T11:34:31;27.00;98.50
45953;DHT22;31662;52.262;10.522;2023-08-12T11:36:58;27.20;98.10
45953;DHT22;31662;52.262;10.522;2023-08-12T11:39:24;27.30;97.60
45953;DHT22;31662;52.262;10.522;2023-08-12T11:41:49;27.20;97.20
45953;DHT22;31662;52.262;10.522;2023-08-12T11:44:16;27.10;97.70
45953;DHT22;31662;52.262;10.522;2023-08-12T11:46:42;26.90;97.50
45953;DHT22;31662;52.262;10.522;2023-08-12T11:49:07;26.80;97.60
45953;DHT22;31662;52.262;10.522;2023-08-12T11:51:34;26.60;97.70
45953;DHT22;31662;52.262;10.522;2023-08-12T11:54:00;26.60;97.70
45953;DHT22;31662;52.262;10.522;2023-08-12T11:56:26;26.70;97.90
45953;DHT22;31662;52.262;10.522;2023-08-12T11:58:52;27.00;97.80
45953;DHT22;31662;52.262;10.522;2023-08-12T12:01:21;27.10;97.50
45953;DHT22;31662;52.262;10.522;2023-08-12T12:03:52;27.10;97.20
45953;DHT22;31662;52.262;10.522;2023-08-12T12:06:18;27.10;97.20
45953;DHT22;31662;52.262;10.522;2023-08-12T12:08:52;27.20;97.00
45953;DHT22;31662;52.262;10.522;2023-08-12T12:11:18;27.30;97.10
45953;DHT22;31662;52.262;10.522;2023-08-12T12:13:45;27.40;96.90
45953;DHT22;31662;52.262;10.522;2023-08-12T12:16:12;27.40;96.80
45953;DHT22;31662;52.262;10.522;2023-08-12T12:18:38;27.40;96.50
45953;DHT22;31662;52.262;10.522;2023-08-12T12:21:04;27.50;96.50
45953;DHT22;31662;52.262;10.522;2023-08-12T12:23:30;27.50;96.60
45953;DHT22;31662;52.262;10.522;2023-08-12T12:26:00;27.70;96.40
45953;DHT22;31662;52.262;10.522;2023-08-12T12:28:26;27.70;96.40
45953;DHT22;31662;52.262;10.522;2023-08-12T12:30:51;27.80;96.20
45953;DHT22;31662;52.262;10.522;2023-08-12T12:33:17;27.80;95.70
45953;DHT22;31662;52.262;10.522;2023-08-12T12:35:42;27.90;95.60
45953;DHT22;31662;52.262;10.522;2023-08-12T12:38:09;28.00;95.10
45953;DHT22;31662;52.262;10.522;2023-08-12T12:40:34;27.90;95.10
45953;DHT22;31662;52.262;10.522;2023-08-12T12:43:00;27.90;95.10
45953;DHT22;31662;52.262;10.522;2023-08-12T12:45:25;28.00;94.80
45953;DHT22;31662;52.262;10.522;2023-08-12T12:47:51;28.00;94.80
45953;DHT22;31662;52.262;10.522;2023-08-12T12:50:16;28.10;95.00
45953;DHT22;31662;52.262;10.522;2023-08-12T12:52:42;28.20;95.00
45953;DHT22;31662;52.262;10.522;2023-08-12T12:55:08;28.40;94.90
45953;DHT22;31662;52.262;10.522;2023-08-12T12:57:34;28.50;94.60
45953;DHT22;31662;52.262;10.522;2023-08-12T13:00:00;28.60;94.30
45953;DHT22;31662;52.262;10.522;2023-08-12T13:02:25;28.70;94.00
45953;DHT22;31662;52.262;10.522;2023-08-12T13:04:52;28.70;93.80
45953;DHT22;31662;52.262;10.522;2023-08-12T13:07:18;28.70;93.90
45953;DHT22;31662;52.262;10.522;2023-08-12T13:09:43;28.70;93.60
45953;DHT22;31662;52.262;10.522;2023-08-12T13:12:09;28.60;93.90
45953;DHT22;31662;52.262;10.522;2023-08-12T13:14:35;28.60;93.80
45953;DHT22;31662;52.262;10.522;2023-08-12T13:17:00;28.70;93.70
45953;DHT22;31662;52.262;10.522;2023-08-12T13:19:26;28.70;93.40
45953;DHT22;31662;52.262;10.522;2023-08-12T13:21:51;28.80;93.60
45953;DHT22;31662;52.262;10.522;2023-08-12T13:24:17;28.80;93.40
45953;DHT22;31662;52.262;10.522;2023-08-12T13:26:43;28.70;93.20
45953;DHT22;31662;52.262;10.522;2023-08-12T13:29:08;28.80;93.10
45953;DHT22;31662;52.262;10.522;2023-08-12T13:31:34;28.80;93.10
45953;DHT22;31662;52.262;10.522;2023-08-12T13:33:59;28.80;93.10
45953;DHT22;31662;52.262;10.522;2023-08-12T13:36:25;28.80;92.90
45953;DHT22;31662;52.262;10.522;2023-08-12T13:38:50;28.80;93.10
45953;DHT22;31662;52.262;10.522;2023-08-12T13:41:16;28.90;92.90
45953;DHT22;31662;52.262;10.522;2023-08-12T13:43:41;29.00;92.90
45953;DHT22;31662;52.262;10.522;2023-08-12T13:46:07;29.10;92.50
45953;DHT22;31662;52.262;10.522;2023-08-12T13:48:32;29.10;92.40
45953;DHT22;31662;52.262;10.522;2023-08-12T13:50:58;29.10;92.40
45953;DHT22;31662;52.262;10.522;2023-08-12T13:53:23;29.00;92.40
45953;DHT22;31662;52.262;10.522;2023-08-12T13:55:49;28.90;92.10
45953;DHT22;31662;52.262;10.522;2023-08-12T13:58:15;28.80;92.20
45953;DHT22;31662;52.262;10.522;2023-08-12T14:00:40;28.80;92.20
45953;DHT22;31662;52.262;10.522;2023-08-12T14:03:06;28.60;92.40
45953;DHT22;31662;52.262;10.522;2023-08-12T14:05:32;28.40;93.00
45953;DHT22;31662;52.262;10.522;2023-08-12T14:07:57;27.90;93.80
45953;DHT22;31662;52.262;10.522;2023-08-12T14:10:24;27.30;94.60
45953;DHT22;31662;52.262;10.522;2023-08-12T14:12:49;26.90;95.00
45953;DHT22;31662;52.262;10.522;2023-08-12T14:15:15;26.70;95.40
45953;DHT22;31662;52.262;10.522;2023-08-12T14:17:40;26.60;95.70
45953;DHT22;31662;52.262;10.522;2023-08-12T14:20:07;26.50;96.10
45953;DHT22;31662;52.262;10.522;2023-08-12T14:22:34;26.50;96.30
45953;DHT22;31662;52.262;10.522;2023-08-12T14:25:01;26.50;96.70
45953;DHT22;31662;52.262;10.522;2023-08-12T14:27:27;26.50;96.80
45953;DHT22;31662;52.262;10.522;2023-08-12T14:29:52;26.50;96.80
45953;DHT22;31662;52.262;10.522;2023-08-12T14:32:18;26.40;96.70
45953;DHT22;31662;52.262;10.522;2023-08-12T14:34:44;26.40;96.60
45953;DHT22;31662;52.262;10.522;2023-08-12T14:37:12;26.30;96.90
45953;DHT22;31662;52.262;10.522;2023-08-12T14:39:38;26.30;96.90
45953;DHT22;31662;52.262;10.522;2023-08-12T14:42:04;26.30;96.90
45953;DHT22;31662;52.262;10.522;2023-08-12T14:44:30;26.30;98.00
45953;DHT22;31662;52.262;10.522;2023-08-12T14:46:58;26.20;99.20
45953;DHT22;31662;52.262;10.522;2023-08-12T14:49:24;25.90;99.90
45953;DHT22;31662;52.262;10.522;2023-08-12T14:51:50;25.70;99.90
45953;DHT22;31662;52.262;10.522;2023-08-12T14:54:16;25.50;99.90
45953;DHT22;31662;52.262;10.522;2023-08-12T14:56:41;24.80;99.90
45953;DHT22;31662;52.262;10.522;2023-08-12T14:59:07;23.70;99.90
45953;DHT22;31662;52.262;10.522;2023-08-12T15:01:33;23.10;99.90
45953;DHT22;31662;52.262;10.522;2023-08-12T15:03:58;22.80;99.90
45953;DHT22;31662;52.262;10.522;2023-08-12T15:06:24;22.70;99.90
45953;DHT22;31662;52.262;10.522;2023-08-12T15:08:49;22.80;99.90
45953;DHT22;31662;52.262;10.522;2023-08-12T15:11:15;23.00;99.90
45953;DHT22;31662;52.262;10.522;2023-08-12T15:13:40;23.20;99.90
45953;DHT22;31662;52.262;10.522;2023-08-12T15:16:06;23.60;99.90
45953;DHT22;31662;52.262;10.522;2023-08-12T15:18:32;23.90;99.90
45953;DHT22;31662;52.262;10.522;2023-08-12T15:20:57;24.20;99.90
45953;DHT22;31662;52.262;10.522;2023-08-12T15:23:23;24.40;99.90
45953;DHT22;31662;52.262;10.522;2023-08-12T15:25:48;24.50;99.90
45953;DHT22;31662;52.262;10.522;2023-08-12T15:28:14;24.70;99.90
45953;DHT22;31662;52.262;10.522;2023-08-12T15:30:39;24.70;99.90